Shady Hills, Florida
Current Conditions -  °F | °C
As of 2:53 AM on Sunday 21 Dec 2014 (Local Time) from KBKV Reporting Station
Haze Haze  
Wind Chill: 62°   Ceiling: 7000
Heat Index: 62°   Visibility: 6mi
Dew Point: 60°   Wind: 3mph
Humidity: 93%   Direction: 30°NNE
Pressure: 30.07"   Gusts: NA
Location:  28.3839°N, 82.4977°W
Report Text: KBKV 210753Z 03003KT 6SM BR BKN070 17/16 A3007 RMK AO2 SLP182 T01670156
Loading
Personal Weather Stations






























Interactive Weather Map New forecast layout! Learn more

10-Day Weather Forecast

Advertisements
Track Severe Weather on mobile